Time;durP1;ratioP1;P1;durP2;ratioP2;P2;SDS_P1;SDS_P2;PMS_P1;PMS_P2;Temp;Humidity;BMP_temperature;BMP_pressure;BME280_temperature;BME280_humidity;BME280_pressure;Samples;Min_cycle;Max_cycle;Signal;HPM_P1;HPM_P2
2024/02/08 00:01:49;;;;;;;9.70;3.78;;;;;;;;;;6117845;23;20290;-79
2024/02/08 00:04:17;;;;;;;7.90;3.90;;;;;;;;;;6117974;23;20037;-80
2024/02/08 00:06:58;;;;;;;6.45;3.50;;;;;;;;;;6087199;23;20128;-79
2024/02/08 00:09:25;;;;;;;6.70;3.28;;;;;;;;;;6088146;23;20058;-79
2024/02/08 00:11:59;;;;;;;8.02;4.10;;;;;;;;;;6087176;23;20026;-79
2024/02/08 00:14:40;;;;;;;7.28;3.90;;;;;;;;;;6095009;23;20037;-51
2024/02/08 00:17:20;;;;;;;6.57;4.13;;;;;;;;;;6143328;23;20029;-54
2024/02/08 00:19:50;;;;;;;9.70;4.68;;;;;;;;;;6145010;23;20175;-50
2024/02/08 00:22:25;;;;;;;10.57;3.80;;;;;;;;;;6145261;23;20025;-51
2024/02/08 00:24:55;;;;;;;8.10;4.40;;;;;;;;;;6141270;23;20097;-52
2024/02/08 00:27:22;;;;;;;7.28;4.40;;;;;;;;;;6142351;23;20033;-52
2024/02/08 00:30:01;;;;;;;7.45;4.63;;;;;;;;;;6143777;23;20017;-60
2024/02/08 00:32:28;;;;;;;7.03;4.18;;;;;;;;;;6143354;23;20025;-61
2024/02/08 00:35:03;;;;;;;10.45;4.35;;;;;;;;;;6144285;23;20025;-61
2024/02/08 00:37:36;;;;;;;19.45;6.63;;;;;;;;;;6143760;23;20025;-64
2024/02/08 00:40:10;;;;;;;8.52;4.32;;;;;;;;;;6143181;23;20025;-61
2024/02/08 00:42:37;;;;;;;10.32;4.40;;;;;;;;;;6142678;23;20025;-61
2024/02/08 00:45:05;;;;;;;7.82;4.45;;;;;;;;;;6141732;23;20021;-62
2024/02/08 00:47:38;;;;;;;10.38;4.30;;;;;;;;;;6141639;23;20104;-61
2024/02/08 00:50:06;;;;;;;8.32;4.53;;;;;;;;;;6145326;23;20060;-61
2024/02/08 00:52:40;;;;;;;6.78;3.90;;;;;;;;;;6144115;23;20049;-64
2024/02/08 00:55:08;;;;;;;8.35;4.25;;;;;;;;;;6142187;23;20033;-62
2024/02/08 00:57:36;;;;;;;7.22;4.35;;;;;;;;;;6142920;23;20025;-53
2024/02/08 01:00:10;;;;;;;6.60;3.95;;;;;;;;;;6143655;23;20021;-52
2024/02/08 01:02:37;;;;;;;6.63;3.72;;;;;;;;;;6141351;23;20022;-53
2024/02/08 01:05:10;;;;;;;6.47;3.67;;;;;;;;;;6144397;23;20030;-51
2024/02/08 01:07:38;;;;;;;8.20;3.83;;;;;;;;;;6145051;23;20026;-53
2024/02/08 01:10:08;;;;;;;;;;;;;;;;;;6143360;23;20026;-63
2024/02/08 01:12:43;;;;;;;7.07;4.13;;;;;;;;;;6139695;23;19975;-63
2024/02/08 01:15:14;;;;;;;9.25;4.07;;;;;;;;;;6133469;23;20075;-64
2024/02/08 01:17:51;;;;;;;8.38;4.30;;;;;;;;;;6141864;23;20084;-64
2024/02/08 01:20:27;;;;;;;10.63;4.70;;;;;;;;;;6144250;23;20412;-64
2024/02/08 01:23:04;;;;;;;7.88;4.30;;;;;;;;;;6143404;23;20076;-64
2024/02/08 01:25:32;;;;;;;7.72;4.25;;;;;;;;;;6144296;23;20428;-64
2024/02/08 01:28:00;;;;;;;;;;;;;;;;;;6144508;23;20056;-72
2024/02/08 01:30:35;;;;;;;8.45;3.92;;;;;;;;;;6142652;23;20218;-69
2024/02/08 01:33:02;;;;;;;7.78;3.83;;;;;;;;;;6141979;23;20025;-71
2024/02/08 01:35:37;;;;;;;6.97;3.83;;;;;;;;;;6143853;23;20096;-71
2024/02/08 01:38:05;;;;;;;;;;;;;;;;;;6144564;23;20026;-54
2024/02/08 01:40:32;;;;;;;;;;;;;;;;;;6143475;23;20007;-65
2024/02/08 01:43:07;;;;;;;7.75;3.45;;;;;;;;;;6141011;23;20158;-64
2024/02/08 01:45:37;;;;;;;9.35;3.72;;;;;;;;;;6140770;23;20041;-64
2024/02/08 01:48:09;;;;;;;8.20;4.53;;;;;;;;;;6142604;23;20482;-64
2024/02/08 01:50:51;;;;;;;5.85;3.78;;;;;;;;;;6143088;23;20475;-64
2024/02/08 01:53:29;;;;;;;7.85;4.43;;;;;;;;;;6142766;23;20450;-64
2024/02/08 01:56:00;;;;;;;7.32;4.07;;;;;;;;;;6146005;23;20026;-64
2024/02/08 01:58:34;;;;;;;7.18;3.88;;;;;;;;;;6146256;23;20442;-61
2024/02/08 02:01:01;;;;;;;8.85;3.83;;;;;;;;;;6142296;23;20084;-61
2024/02/08 02:03:35;;;;;;;8.65;4.07;;;;;;;;;;6144658;23;20399;-62
2024/02/08 02:06:08;;;;;;;8.23;3.88;;;;;;;;;;6145175;23;20052;-61
2024/02/08 02:08:52;;;;;;;8.55;4.35;;;;;;;;;;6143111;23;20033;-56
2024/02/08 02:11:35;;;;;;;4.43;3.08;;;;;;;;;;6146087;23;20120;-53
2024/02/08 02:14:10;;;;;;;6.80;4.15;;;;;;;;;;6146436;23;20025;-50
2024/02/08 02:16:44;;;;;;;8.27;3.83;;;;;;;;;;6144695;23;20088;-53
2024/02/08 02:19:17;;;;;;;10.73;3.90;;;;;;;;;;6144729;23;20410;-53
2024/02/08 02:21:46;;;;;;;;;;;;;;;;;;6144319;23;20092;-53
2024/02/08 02:24:13;;;;;;;6.65;3.70;;;;;;;;;;6143984;23;20351;-62
2024/02/08 02:26:50;;;;;;;9.25;3.85;;;;;;;;;;6143555;23;20036;-62
2024/02/08 02:29:21;;;;;;;10.25;4.35;;;;;;;;;;6145085;23;20022;-62
2024/02/08 02:31:55;;;;;;;10.23;4.25;;;;;;;;;;6145836;23;20088;-61
2024/02/08 02:34:25;;;;;;;;;;;;;;;;;;6143861;23;20049;-63
2024/02/08 02:36:58;;;;;;;10.73;4.70;;;;;;;;;;6142907;23;20786;-62
2024/02/08 02:39:32;;;;;;;6.45;3.85;;;;;;;;;;6143710;23;20022;-62
2024/02/08 02:41:59;;;;;;;10.38;4.53;;;;;;;;;;6142807;23;20240;-62
2024/02/08 02:44:34;;;;;;;8.00;4.18;;;;;;;;;;6143418;23;20022;-62
2024/02/08 02:47:05;;;;;;;9.90;4.45;;;;;;;;;;6144749;23;20026;-62
2024/02/08 02:49:41;;;;;;;5.82;3.42;;;;;;;;;;6143526;23;20459;-61
2024/02/08 02:52:08;;;;;;;7.97;4.75;;;;;;;;;;6143088;23;20335;-62
2024/02/08 02:54:36;;;;;;;8.07;4.03;;;;;;;;;;6141899;23;20028;-63
2024/02/08 02:57:11;;;;;;;10.55;5.38;;;;;;;;;;6142892;23;20033;-63
2024/02/08 02:59:38;;;;;;;9.00;4.20;;;;;;;;;;6143648;23;20025;-63
2024/02/08 03:02:13;;;;;;;6.75;4.40;;;;;;;;;;6145815;23;20076;-62
2024/02/08 03:04:40;;;;;;;;;;;;;;;;;;6144928;23;20108;-61
2024/02/08 03:07:10;;;;;;;10.55;4.35;;;;;;;;;;6144297;23;19999;-62
2024/02/08 03:09:46;;;;;;;9.05;4.70;;;;;;;;;;6144674;23;20021;-62
2024/02/08 03:12:13;;;;;;;11.52;4.60;;;;;;;;;;6143493;23;20033;-61
2024/02/08 03:15:09;;;;;;;13.63;5.18;;;;;;;;;;6142663;23;20617;-60
2024/02/08 03:17:42;;;;;;;13.18;4.22;;;;;;;;;;6143449;23;20100;-61
2024/02/08 03:20:24;;;;;;;8.10;4.13;;;;;;;;;;6145982;23;20483;-70
2024/02/08 03:22:51;;;;;;;9.98;4.57;;;;;;;;;;6144929;23;20045;-70
2024/02/08 03:25:26;;;;;;;14.25;4.30;;;;;;;;;;6144351;23;20185;-70
2024/02/08 03:27:59;;;;;;;7.40;4.30;;;;;;;;;;6143264;23;20025;-70
2024/02/08 03:30:34;;;;;;;10.10;4.57;;;;;;;;;;6142855;23;20025;-62
2024/02/08 03:33:18;;;;;;;7.63;4.05;;;;;;;;;;6145693;23;20084;-56
2024/02/08 03:35:53;;;;;;;7.38;4.55;;;;;;;;;;6144866;23;20029;-55
2024/02/08 03:38:26;;;;;;;7.18;4.63;;;;;;;;;;6146786;23;20021;-54
2024/02/08 03:40:54;;;;;;;7.85;3.92;;;;;;;;;;6145871;23;20108;-56
2024/02/08 03:43:23;;;;;;;7.40;3.83;;;;;;;;;;6142864;23;20053;-55
2024/02/08 03:45:57;;;;;;;8.15;4.47;;;;;;;;;;6139945;23;20026;-56
2024/02/08 03:48:24;;;;;;;;;;;;;;;;;;6145729;23;20029;-62
2024/02/08 03:51:00;;;;;;;9.15;4.03;;;;;;;;;;6142067;23;19932;-63
2024/02/08 03:53:29;;;;;;;9.43;4.57;;;;;;;;;;6145836;23;20092;-63
2024/02/08 03:55:56;;;;;;;10.02;4.55;;;;;;;;;;6142568;23;20056;-62
2024/02/08 03:58:31;;;;;;;8.50;4.80;;;;;;;;;;6142220;23;20021;-70
2024/02/08 04:01:00;;;;;;;10.93;4.50;;;;;;;;;;6144038;23;20348;-62
2024/02/08 04:03:52;;;;;;;9.40;4.88;;;;;;;;;;6144011;23;20018;-62
2024/02/08 04:06:49;;;;;;;6.80;4.10;;;;;;;;;;6142103;23;20352;-61
2024/02/08 04:09:33;;;;;;;7.63;4.88;;;;;;;;;;6143451;23;20026;-61
2024/02/08 04:54:59;;;;;;;9.75;4.45;;;;;;;;;;6143146;23;20081;-61
2024/02/08 04:57:27;;;;;;;7.25;4.45;;;;;;;;;;6141021;23;20057;-62
2024/02/08 05:00:01;;;;;;;7.82;4.35;;;;;;;;;;6143665;23;20029;-55
2024/02/08 05:02:31;;;;;;;10.45;4.60;;;;;;;;;;6144015;23;20025;-55
2024/02/08 05:04:58;;;;;;;8.55;4.72;;;;;;;;;;6143980;23;20083;-52
2024/02/08 05:07:32;;;;;;;6.13;4.18;;;;;;;;;;6144974;23;20189;-53
2024/02/08 05:09:59;;;;;;;;;;;;;;;;;;6146737;23;20021;-55
2024/02/08 05:12:33;;;;;;;9.05;4.25;;;;;;;;;;6144459;23;19920;-56
2024/02/08 05:15:12;;;;;;;;;;;;;;;;;;6146753;23;20252;-61
2024/02/08 05:17:54;;;;;;;8.85;4.28;;;;;;;;;;6146773;23;20398;-61
2024/02/08 05:20:29;;;;;;;9.93;4.75;;;;;;;;;;6145400;23;20111;-62
2024/02/08 05:23:03;;;;;;;8.95;4.57;;;;;;;;;;6143717;23;20032;-64
2024/02/08 05:25:36;;;;;;;8.57;4.78;;;;;;;;;;6143141;23;20083;-63
2024/02/08 05:28:04;;;;;;;9.40;4.68;;;;;;;;;;6143255;23;20360;-62
2024/02/08 05:30:32;;;;;;;6.82;4.15;;;;;;;;;;6145323;23;20194;-63
2024/02/08 05:33:08;;;;;;;9.63;4.32;;;;;;;;;;6144347;23;20080;-62
2024/02/08 05:35:36;;;;;;;21.60;6.10;;;;;;;;;;6145086;23;20022;-64
2024/02/08 05:38:03;;;;;;;8.63;4.95;;;;;;;;;;6144018;23;20538;-62
2024/02/08 05:40:43;;;;;;;7.63;4.45;;;;;;;;;;6143790;23;20084;-64
2024/02/08 05:43:11;;;;;;;10.13;4.45;;;;;;;;;;6142667;23;20026;-64
2024/02/08 05:45:45;;;;;;;8.48;5.07;;;;;;;;;;6143452;23;20123;-62
2024/02/08 05:48:13;;;;;;;7.88;4.30;;;;;;;;;;6141399;23;20026;-61
2024/02/08 05:50:47;;;;;;;13.13;5.55;;;;;;;;;;6141537;23;20022;-63
2024/02/08 05:53:17;;;;;;;;;;;;;;;;;;6142426;23;20025;-54
2024/02/08 05:55:52;;;;;;;10.85;4.68;;;;;;;;;;6140403;23;19990;-55
2024/02/08 05:58:23;;;;;;;6.63;4.18;;;;;;;;;;6140548;23;20096;-52
2024/02/08 06:00:57;;;;;;;12.07;5.07;;;;;;;;;;6141782;23;20065;-58
2024/02/08 06:03:38;;;;;;;7.35;4.68;;;;;;;;;;6141305;23;20448;-54
2024/02/08 06:06:15;;;;;;;7.50;4.05;;;;;;;;;;6141122;23;20026;-57
2024/02/08 06:08:56;;;;;;;5.65;3.90;;;;;;;;;;6140184;23;20556;-52
2024/02/08 06:11:23;;;;;;;8.13;4.70;;;;;;;;;;6145494;23;20033;-55
2024/02/08 06:13:59;;;;;;;8.20;4.80;;;;;;;;;;6143853;23;20048;-54
2024/02/08 06:16:45;;;;;;;9.38;4.03;;;;;;;;;;6145002;23;20033;-57
2024/02/08 06:19:21;;;;;;;7.88;4.65;;;;;;;;;;6144667;23;20029;-55
2024/02/08 06:21:57;;;;;;;11.27;4.25;;;;;;;;;;6144073;23;20029;-63
2024/02/08 06:24:32;;;;;;;10.50;4.97;;;;;;;;;;6144863;23;20041;-64
2024/02/08 06:27:13;;;;;;;9.45;4.53;;;;;;;;;;6145844;23;20230;-64
2024/02/08 06:29:46;;;;;;;8.80;4.25;;;;;;;;;;6145311;23;20021;-63
2024/02/08 06:32:33;;;;;;;7.95;4.57;;;;;;;;;;6145444;23;20088;-64
2024/02/08 06:35:25;;;;;;;9.38;4.25;;;;;;;;;;6143565;23;20099;-64
2024/02/08 06:38:08;;;;;;;12.20;4.60;;;;;;;;;;6144912;23;20344;-64
2024/02/08 06:40:53;;;;;;;7.05;4.43;;;;;;;;;;6146019;23;20026;-56
2024/02/08 07:41:57;;;;;;;10.23;5.22;;;;;;;;;;6145739;23;20033;-57
2024/02/08 07:44:30;;;;;;;;;;;;;;;;;;6146565;23;20021;-57
2024/02/08 07:47:05;;;;;;;14.50;4.93;;;;;;;;;;6145077;23;19921;-63
2024/02/08 07:49:42;;;;;;;10.30;5.47;;;;;;;;;;6144054;23;20021;-63
2024/02/08 07:52:19;;;;;;;12.23;6.57;;;;;;;;;;6145277;23;20367;-64
2024/02/08 07:57:46;;;;;;;14.07;6.22;;;;;;;;;;6144382;23;20535;-64
2024/02/08 08:00:41;;;;;;;13.27;6.32;;;;;;;;;;6147130;23;20021;-64
2024/02/08 08:03:15;;;;;;;9.70;6.00;;;;;;;;;;6146394;23;20051;-64
2024/02/08 08:05:56;;;;;;;11.15;6.55;;;;;;;;;;6146801;23;20076;-55
2024/02/08 08:08:36;;;;;;;12.10;5.80;;;;;;;;;;6146221;23;20033;-54
2024/02/08 08:11:15;;;;;;;10.82;5.97;;;;;;;;;;6145982;23;20025;-55
2024/02/08 08:16:36;;;;;;;15.73;7.53;;;;;;;;;;6145638;23;20029;-62
2024/02/08 08:19:10;;;;;;;10.07;6.13;;;;;;;;;;6143603;23;20093;-63
2024/02/08 08:24:42;;;;;;;12.27;6.63;;;;;;;;;;6144793;23;20410;-63
2024/02/08 08:27:32;;;;;;;13.45;6.72;;;;;;;;;;6147442;23;20025;-62
2024/02/08 08:30:03;;;;;;;18.63;6.38;;;;;;;;;;6146800;23;20475;-62
2024/02/08 08:40:48;;;;;;;9.88;6.43;;;;;;;;;;6144501;23;20025;-64
2024/02/08 08:43:24;;;;;;;14.13;6.80;;;;;;;;;;6144561;23;20025;-64
2024/02/08 08:45:53;;;;;;;12.23;6.50;;;;;;;;;;6144453;23;20025;-64
2024/02/08 08:48:21;;;;;;;21.83;6.70;;;;;;;;;;6146290;23;20032;-63
2024/02/08 08:51:10;;;;;;;12.68;6.55;;;;;;;;;;6146563;23;20053;-62
2024/02/08 08:53:56;;;;;;;13.32;6.72;;;;;;;;;;6143115;23;20057;-63
2024/02/08 08:56:30;;;;;;;10.95;6.38;;;;;;;;;;6145058;23;20026;-63
2024/02/08 08:59:05;;;;;;;11.60;6.72;;;;;;;;;;6143645;23;20029;-62
2024/02/08 09:01:36;;;;;;;;;;;;;;;;;;6145855;23;20440;-63
2024/02/08 09:04:09;;;;;;;11.48;6.70;;;;;;;;;;6143072;23;19920;-63
2024/02/08 09:06:47;;;;;;;11.57;6.80;;;;;;;;;;6145979;23;20097;-63
2024/02/08 09:09:27;;;;;;;11.13;6.60;;;;;;;;;;6145833;23;20031;-63
2024/02/08 09:12:02;;;;;;;16.15;6.57;;;;;;;;;;6146706;23;20287;-64
2024/02/08 09:14:30;;;;;;;13.45;6.53;;;;;;;;;;6145793;23;20033;-63
2024/02/08 09:16:58;;;;;;;14.57;6.70;;;;;;;;;;6143320;23;20475;-63
2024/02/08 09:19:59;;;;;;;11.13;6.13;;;;;;;;;;6145139;23;20022;-63
2024/02/08 09:22:32;;;;;;;10.35;5.85;;;;;;;;;;6143678;23;20053;-63
2024/02/08 09:25:10;;;;;;;13.60;6.53;;;;;;;;;;6144558;23;20025;-63
2024/02/08 09:28:23;;;;;;;12.63;5.43;;;;;;;;;;6144441;23;20021;-63
2024/02/08 09:30:52;;;;;;;9.38;6.32;;;;;;;;;;6146182;23;20021;-64
2024/02/08 09:33:44;;;;;;;13.98;6.10;;;;;;;;;;6144893;23;20049;-64
2024/02/08 09:36:19;;;;;;;10.05;5.55;;;;;;;;;;6146977;23;20029;-63
2024/02/08 09:38:50;;;;;;;11.02;5.75;;;;;;;;;;6144125;23;20041;-64
2024/02/08 09:41:24;;;;;;;11.43;5.72;;;;;;;;;;6145935;23;20022;-54
2024/02/08 09:43:56;;;;;;;9.32;5.88;;;;;;;;;;6144902;23;20755;-64
2024/02/08 09:49:13;;;;;;;13.20;6.25;;;;;;;;;;6144042;23;20030;-63
2024/02/08 09:51:56;;;;;;;17.38;5.72;;;;;;;;;;6145545;23;20096;-63
2024/02/08 09:54:27;;;;;;;10.60;6.13;;;;;;;;;;6144382;23;20076;-62
2024/02/08 09:57:02;;;;;;;12.07;6.90;;;;;;;;;;6145678;23;20033;-63
2024/02/08 10:02:32;;;;;;;9.55;5.57;;;;;;;;;;6144133;23;20534;-72
2024/02/08 10:05:18;;;;;;;12.85;6.47;;;;;;;;;;6145069;23;20522;-71
2024/02/08 10:08:05;;;;;;;8.95;5.70;;;;;;;;;;6144159;23;20030;-71
2024/02/08 10:10:43;;;;;;;10.23;5.68;;;;;;;;;;6142827;23;20040;-55
2024/02/08 10:13:30;;;;;;;12.02;5.75;;;;;;;;;;6143973;23;20250;-64
2024/02/08 10:16:03;;;;;;;11.98;5.38;;;;;;;;;;6146750;23;20040;-64
2024/02/08 10:18:43;;;;;;;12.13;5.63;;;;;;;;;;6147846;23;20022;-64
2024/02/08 10:21:17;;;;;;;7.22;4.55;;;;;;;;;;6145550;23;20349;-64
2024/02/08 10:23:59;;;;;;;10.68;5.38;;;;;;;;;;6146047;23;20026;-64
2024/02/08 10:26:27;;;;;;;11.48;5.20;;;;;;;;;;6147347;23;20404;-63
2024/02/08 10:29:07;;;;;;;9.65;5.40;;;;;;;;;;6146437;23;20069;-63
2024/02/08 10:31:37;;;;;;;9.75;4.80;;;;;;;;;;6145876;23;20029;-63
2024/02/08 10:34:23;;;;;;;8.50;4.80;;;;;;;;;;6144278;23;20022;-64
2024/02/08 10:36:50;;;;;;;10.48;4.93;;;;;;;;;;6146010;23;20065;-63
2024/02/08 10:39:27;;;;;;;12.93;5.57;;;;;;;;;;6146158;23;20021;-65
2024/02/08 10:42:01;;;;;;;8.65;5.20;;;;;;;;;;6146888;23;20475;-71
2024/02/08 10:44:32;;;;;;;9.40;5.15;;;;;;;;;;6145822;23;20093;-72
2024/02/08 10:47:09;;;;;;;11.43;5.80;;;;;;;;;;6146171;23;20021;-71
2024/02/08 10:49:44;;;;;;;13.57;6.88;;;;;;;;;;6145410;23;20080;-71
2024/02/08 10:52:20;;;;;;;12.98;6.68;;;;;;;;;;6146606;23;20026;-71
2024/02/08 10:54:52;;;;;;;11.27;6.45;;;;;;;;;;6146760;23;20108;-64
2024/02/08 10:58:01;;;;;;;16.52;6.78;;;;;;;;;;6148021;23;20029;-53
2024/02/08 11:06:00;;;;;;;11.73;6.88;;;;;;;;;;6146521;23;20395;-56
2024/02/08 11:08:50;;;;;;;14.55;6.07;;;;;;;;;;6145744;23;20036;-62
2024/02/08 11:11:20;;;;;;;13.63;6.10;;;;;;;;;;6145042;23;20040;-62
2024/02/08 11:13:59;;;;;;;8.63;4.68;;;;;;;;;;6145706;23;20088;-62
2024/02/08 11:16:33;;;;;;;14.57;6.78;;;;;;;;;;6145343;23;20088;-62
2024/02/08 11:19:19;;;;;;;10.77;6.35;;;;;;;;;;6146582;23;20025;-63
2024/02/08 11:21:49;;;;;;;10.88;5.65;;;;;;;;;;6147170;23;20040;-63
2024/02/08 11:24:29;;;;;;;10.15;5.50;;;;;;;;;;6146629;23;20022;-64
2024/02/08 11:27:01;;;;;;;8.98;5.47;;;;;;;;;;6146453;23;20099;-64
2024/02/08 11:29:47;;;;;;;7.53;3.75;;;;;;;;;;6144676;23;20025;-64
2024/02/08 11:32:18;;;;;;;9.27;4.50;;;;;;;;;;6145971;23;20033;-64
2024/02/08 11:35:00;;;;;;;10.20;5.05;;;;;;;;;;6144140;23;20471;-64
2024/02/08 11:37:30;;;;;;;7.25;5.10;;;;;;;;;;6145421;23;20063;-62
2024/02/08 11:40:11;;;;;;;9.93;5.20;;;;;;;;;;6146662;23;20017;-63
2024/02/08 11:42:42;;;;;;;6.13;4.47;;;;;;;;;;6147100;23;20100;-62
2024/02/08 11:45:22;;;;;;;8.23;5.00;;;;;;;;;;6146470;23;20021;-62
2024/02/08 11:47:50;;;;;;;7.35;4.72;;;;;;;;;;6142892;23;20108;-63
2024/02/08 11:50:24;;;;;;;8.20;4.57;;;;;;;;;;6146356;23;20029;-62
2024/02/08 11:52:57;;;;;;;6.60;4.47;;;;;;;;;;6144796;23;20124;-53
2024/02/08 11:55:33;;;;;;;13.15;6.40;;;;;;;;;;6145038;23;20061;-51
2024/02/08 11:58:05;;;;;;;8.70;5.10;;;;;;;;;;6146394;23;20471;-53
2024/02/08 12:00:48;;;;;;;8.18;4.60;;;;;;;;;;6145580;23;20034;-54
2024/02/08 12:03:22;;;;;;;9.45;4.75;;;;;;;;;;6146126;23;20025;-62
2024/02/08 12:05:54;;;;;;;9.18;4.63;;;;;;;;;;6145828;23;20113;-54
2024/02/08 12:08:28;;;;;;;;;;;;;;;;;;6145000;23;20025;-54
2024/02/08 12:11:03;;;;;;;10.20;4.70;;;;;;;;;;6145811;23;19988;-53
2024/02/08 12:13:40;;;;;;;9.85;5.35;;;;;;;;;;6144834;23;20325;-53
2024/02/08 12:16:13;;;;;;;8.85;4.82;;;;;;;;;;6147056;23;20060;-50
2024/02/08 12:18:59;;;;;;;9.30;4.43;;;;;;;;;;6146127;23;20032;-52
2024/02/08 12:21:35;;;;;;;9.00;5.30;;;;;;;;;;6146602;23;20033;-61
2024/02/08 12:24:02;;;;;;;8.48;4.75;;;;;;;;;;6145008;23;20356;-60
2024/02/08 12:26:38;;;;;;;7.85;4.65;;;;;;;;;;6146000;23;20529;-60
2024/02/08 12:29:06;;;;;;;10.15;4.82;;;;;;;;;;6144284;23;20433;-62
2024/02/08 12:31:34;;;;;;;10.57;5.88;;;;;;;;;;6144894;23;20400;-53
2024/02/08 12:34:08;;;;;;;12.20;6.13;;;;;;;;;;6146748;23;20541;-61
2024/02/08 12:36:36;;;;;;;11.95;5.95;;;;;;;;;;6144740;23;20040;-61
2024/02/08 12:39:17;;;;;;;11.82;6.00;;;;;;;;;;6144030;23;20236;-62
2024/02/08 12:41:46;;;;;;;21.27;6.55;;;;;;;;;;6145595;23;20125;-62
2024/02/08 12:44:20;;;;;;;15.15;7.57;;;;;;;;;;6143902;23;20104;-61
2024/02/08 12:46:54;;;;;;;16.55;7.68;;;;;;;;;;6145793;23;20021;-61
2024/02/08 12:49:22;;;;;;;17.10;6.57;;;;;;;;;;6146665;23;20032;-61
2024/02/08 12:51:50;;;;;;;16.00;7.22;;;;;;;;;;6146144;23;20029;-61
2024/02/08 12:54:25;;;;;;;12.73;7.00;;;;;;;;;;6145101;23;20025;-61
2024/02/08 12:57:12;;;;;;;16.27;7.82;;;;;;;;;;6144757;23;20379;-62
2024/02/08 12:59:47;;;;;;;14.90;7.47;;;;;;;;;;6143072;23;20084;-62
2024/02/08 13:02:17;;;;;;;14.35;7.00;;;;;;;;;;6145524;23;20025;-60
2024/02/08 13:04:48;;;;;;;18.25;7.35;;;;;;;;;;6143547;23;20029;-60
2024/02/08 13:07:25;;;;;;;14.23;6.43;;;;;;;;;;6145914;23;20068;-60
2024/02/08 13:10:02;;;;;;;15.15;6.53;;;;;;;;;;6145267;23;20063;-60
2024/02/08 13:12:37;;;;;;;14.07;6.18;;;;;;;;;;6145674;23;20018;-60
2024/02/08 13:15:20;;;;;;;15.18;6.20;;;;;;;;;;6144849;23;20029;-60
2024/02/08 13:18:02;;;;;;;12.82;6.32;;;;;;;;;;6144654;23;20026;-60
2024/02/08 13:20:29;;;;;;;16.65;6.80;;;;;;;;;;6144766;23;20025;-61
2024/02/08 13:23:10;;;;;;;10.07;5.68;;;;;;;;;;6144356;23;20026;-62
2024/02/08 13:25:39;;;;;;;13.65;5.80;;;;;;;;;;6144971;23;20531;-60
2024/02/08 13:28:14;;;;;;;15.20;6.07;;;;;;;;;;6145081;23;20026;-61
2024/02/08 13:30:45;;;;;;;12.98;6.22;;;;;;;;;;6144774;23;20033;-55
2024/02/08 13:33:13;;;;;;;19.23;6.97;;;;;;;;;;6144778;23;20534;-50
2024/02/08 13:35:48;;;;;;;15.13;6.53;;;;;;;;;;6143491;23;20044;-51
2024/02/08 13:38:16;;;;;;;;;;;;;;;;;;6145012;23;20064;-53
2024/02/08 13:40:44;;;;;;;13.70;5.78;;;;;;;;;;6144181;23;20245;-51
2024/02/08 13:43:18;;;;;;;10.40;5.47;;;;;;;;;;6146166;23;20021;-51
2024/02/08 13:45:46;;;;;;;11.65;5.82;;;;;;;;;;6144935;23;20029;-69
2024/02/08 13:48:25;;;;;;;11.07;6.20;;;;;;;;;;6146813;23;20025;-69
2024/02/08 13:50:53;;;;;;;13.77;6.43;;;;;;;;;;6145216;23;20026;-70
2024/02/08 13:53:28;;;;;;;12.50;5.47;;;;;;;;;;6145034;23;20030;-70
2024/02/08 13:55:55;;;;;;;12.27;5.47;;;;;;;;;;6145718;23;20530;-69
2024/02/08 13:58:30;;;;;;;10.05;5.28;;;;;;;;;;6144686;23;20025;-70
2024/02/08 14:01:01;;;;;;;14.85;6.60;;;;;;;;;;6148156;23;20093;-64
2024/02/08 14:03:29;;;;;;;14.90;5.95;;;;;;;;;;6147141;23;20419;-65
2024/02/08 14:06:08;;;;;;;9.90;5.25;;;;;;;;;;6147812;23;20040;-65
2024/02/08 14:08:41;;;;;;;11.68;5.60;;;;;;;;;;6146326;23;20025;-66
2024/02/08 14:11:19;;;;;;;7.10;4.32;;;;;;;;;;6147066;23;20092;-64
2024/02/08 14:13:49;;;;;;;11.30;5.30;;;;;;;;;;6145912;23;20032;-64
2024/02/08 14:16:37;;;;;;;10.75;5.03;;;;;;;;;;6147085;23;20096;-64
2024/02/08 14:19:04;;;;;;;12.50;4.20;;;;;;;;;;6146501;23;20080;-64
2024/02/08 14:21:40;;;;;;;8.38;4.70;;;;;;;;;;6145350;23;20479;-63
2024/02/08 14:24:14;;;;;;;7.25;4.53;;;;;;;;;;6146149;23;20077;-64
2024/02/08 14:26:49;;;;;;;11.80;4.65;;;;;;;;;;6145649;23;20424;-72
2024/02/08 14:29:16;;;;;;;8.70;5.07;;;;;;;;;;6145413;23;20029;-66
2024/02/08 14:31:50;;;;;;;9.43;5.00;;;;;;;;;;6145825;23;20134;-64
2024/02/08 14:34:17;;;;;;;9.52;5.22;;;;;;;;;;6147167;23;20053;-65
2024/02/08 14:36:51;;;;;;;10.18;5.05;;;;;;;;;;6146242;23;20484;-64
2024/02/08 14:39:32;;;;;;;9.18;4.47;;;;;;;;;;6145585;23;20021;-64
2024/02/08 14:42:12;;;;;;;7.78;4.57;;;;;;;;;;6146587;23;20030;-64
2024/02/08 14:44:44;;;;;;;7.28;4.70;;;;;;;;;;6146255;23;20073;-62
2024/02/08 14:47:31;;;;;;;9.13;4.97;;;;;;;;;;6146554;23;20032;-62
2024/02/08 14:50:48;;;;;;;7.60;4.53;;;;;;;;;;6144029;23;20029;-62
2024/02/08 14:52:54;;;;;;;11.45;4.80;;;;;;;;;;6146129;23;20398;-51
2024/02/08 14:55:35;;;;;;;10.25;5.30;;;;;;;;;;6146922;23;20021;-52
2024/02/08 14:58:04;;;;;;;10.70;5.93;;;;;;;;;;6147225;23;20026;-62
2024/02/08 15:03:08;;;;;;;10.77;6.10;;;;;;;;;;6145740;23;20018;-62
2024/02/08 15:05:46;;;;;;;10.35;5.18;;;;;;;;;;6145447;23;20072;-62
2024/02/08 15:10:59;;;;;;;11.85;5.28;;;;;;;;;;6146402;23;20026;-64
2024/02/08 15:13:49;;;;;;;9.73;4.93;;;;;;;;;;6146716;23;20029;-56
2024/02/08 15:16:24;;;;;;;12.82;5.85;;;;;;;;;;6146156;23;20092;-55
2024/02/08 15:19:05;;;;;;;8.50;5.32;;;;;;;;;;6146074;23;20021;-53
2024/02/08 15:21:36;;;;;;;11.63;5.30;;;;;;;;;;6146271;23;20022;-64
2024/02/08 15:29:42;;;;;;;10.98;5.50;;;;;;;;;;6143831;23;20407;-62
2024/02/08 15:32:58;;;;;;;10.02;5.07;;;;;;;;;;6143696;23;20052;-63
2024/02/08 15:35:22;;;;;;;11.80;5.68;;;;;;;;;;6133809;23;20475;-63
2024/02/08 15:38:18;;;;;;;14.30;6.45;;;;;;;;;;6146624;23;20029;-64
2024/02/08 15:40:54;;;;;;;11.35;5.07;;;;;;;;;;6146025;23;20022;-63
2024/02/08 15:43:25;;;;;;;11.27;5.63;;;;;;;;;;6145216;23;20885;-63
2024/02/08 15:46:03;;;;;;;9.82;5.40;;;;;;;;;;6145530;23;20404;-64
2024/02/08 15:48:32;;;;;;;13.10;4.63;;;;;;;;;;6145018;23;20025;-63
2024/02/08 15:51:08;;;;;;;10.50;5.00;;;;;;;;;;6144569;23;20053;-64
2024/02/08 15:53:49;;;;;;;12.93;5.38;;;;;;;;;;6144562;23;20542;-72
2024/02/08 15:56:25;;;;;;;11.20;5.43;;;;;;;;;;6144091;23;20033;-72
2024/02/08 15:59:01;;;;;;;9.93;5.47;;;;;;;;;;6145013;23;20036;-72
2024/02/08 16:01:57;;;;;;;10.90;5.32;;;;;;;;;;6145380;23;20029;-72
2024/02/08 16:07:27;;;;;;;14.77;5.32;;;;;;;;;;6146040;23;20081;-72
2024/02/08 16:10:19;;;;;;;12.73;5.20;;;;;;;;;;6144576;23;20025;-73
2024/02/08 16:12:47;;;;;;;11.63;5.78;;;;;;;;;;6145273;23;20233;-72
2024/02/08 16:15:22;;;;;;;13.38;6.13;;;;;;;;;;6143530;23;20061;-72
2024/02/08 16:18:03;;;;;;;9.07;5.88;;;;;;;;;;6142766;23;20033;-72
2024/02/08 16:20:37;;;;;;;11.50;5.88;;;;;;;;;;6144668;23;20021;-73
2024/02/08 16:23:13;;;;;;;12.40;5.93;;;;;;;;;;6144564;23;20091;-54
2024/02/08 16:25:53;;;;;;;13.75;5.93;;;;;;;;;;6146776;23;20363;-57
2024/02/08 16:28:22;;;;;;;10.55;5.80;;;;;;;;;;6147417;23;20029;-56
2024/02/08 16:33:33;;;;;;;11.05;5.75;;;;;;;;;;6145576;23;20029;-55
2024/02/08 16:36:21;;;;;;;11.00;5.80;;;;;;;;;;6145481;23;20502;-57
2024/02/08 16:38:57;;;;;;;8.32;5.47;;;;;;;;;;6145495;23;20367;-54
2024/02/08 16:41:32;;;;;;;13.73;5.95;;;;;;;;;;6144729;23;20029;-53
2024/02/08 16:44:37;;;;;;;11.60;6.05;;;;;;;;;;4773478;27;8364548;-53
2024/02/08 16:47:27;;;;;;;11.98;5.95;;;;;;;;;;5043070;28;20308;-63
2024/02/08 16:50:17;;;;;;;8.38;5.50;;;;;;;;;;5042327;28;20070;-72
2024/02/08 16:52:58;;;;;;;9.27;5.65;;;;;;;;;;5048039;28;20132;-72
2024/02/08 16:55:46;;;;;;;10.75;6.85;;;;;;;;;;5043403;28;20647;-72
2024/02/08 16:58:19;;;;;;;15.95;6.45;;;;;;;;;;5059331;28;20134;-72
2024/02/08 17:00:54;;;;;;;13.57;6.70;;;;;;;;;;5041005;28;20057;-72
2024/02/08 17:03:50;;;;;;;10.75;6.22;;;;;;;;;;5062762;28;20072;-73
2024/02/08 17:06:34;;;;;;;11.90;5.93;;;;;;;;;;5047572;28;20049;-63
2024/02/08 17:09:15;;;;;;;11.97;5.87;;;;;;;;;;5042067;28;20053;-63
2024/02/08 17:11:58;;;;;;;;;;;;;;;;;;5051127;28;20090;-63
2024/02/08 17:14:33;;;;;;;13.70;6.03;;;;;;;;;;5045845;28;21149;-63
2024/02/08 17:17:08;;;;;;;11.30;5.80;;;;;;;;;;5044278;28;20083;-64
2024/02/08 17:19:51;;;;;;;11.98;5.70;;;;;;;;;;5042419;28;20041;-54
2024/02/08 17:25:05;;;;;;;11.18;6.28;;;;;;;;;;5044361;28;20480;-51
2024/02/08 17:30:17;;;;;;;10.98;6.22;;;;;;;;;;5043745;28;20041;-51
2024/02/08 17:32:45;;;;;;;11.73;5.90;;;;;;;;;;5043254;28;20044;-53
2024/02/08 17:35:21;;;;;;;11.90;6.22;;;;;;;;;;5047050;28;20056;-64
2024/02/08 17:38:00;;;;;;;10.48;5.82;;;;;;;;;;5046718;28;20139;-63
2024/02/08 17:40:31;;;;;;;14.65;5.93;;;;;;;;;;5044819;28;20497;-64
2024/02/08 17:43:17;;;;;;;11.77;6.45;;;;;;;;;;5054589;28;20065;-63
2024/02/08 17:45:54;;;;;;;12.25;6.15;;;;;;;;;;5064247;28;20049;-64
2024/02/08 17:48:28;;;;;;;10.82;6.03;;;;;;;;;;5064004;28;20170;-58
2024/02/08 17:50:59;;;;;;;11.60;6.75;;;;;;;;;;5062102;28;20488;-52
2024/02/08 17:53:35;;;;;;;14.25;6.43;;;;;;;;;;5055754;28;20044;-54
2024/02/08 17:56:08;;;;;;;10.95;6.07;;;;;;;;;;5051956;28;20145;-54
2024/02/08 17:58:44;;;;;;;11.35;6.00;;;;;;;;;;5048394;28;20053;-55
2024/02/08 18:01:15;;;;;;;13.82;6.90;;;;;;;;;;5030952;28;20123;-55